createdAt,value
2022-12-01T00:03:10.369Z,13.98
2022-12-01T00:08:12.631Z,14.48
2022-12-01T00:13:14.448Z,13.82
2022-12-01T00:18:16.620Z,14.40
2022-12-01T00:23:18.752Z,13.63
2022-12-01T00:28:20.537Z,13.65
2022-12-01T00:33:22.295Z,13.88
2022-12-01T00:38:24.034Z,13.85
2022-12-01T00:43:25.961Z,13.40
2022-12-01T00:48:27.809Z,13.25
2022-12-01T00:53:29.536Z,13.80
2022-12-01T00:58:31.646Z,12.77
2022-12-01T01:03:34.283Z,13.00
2022-12-01T01:08:36.575Z,12.73
2022-12-01T01:13:38.845Z,12.40
2022-12-01T01:18:40.966Z,13.40
2022-12-01T01:23:43.082Z,12.25
2022-12-01T01:28:45.780Z,13.85
2022-12-01T01:33:47.999Z,13.60
2022-12-01T01:38:54.444Z,13.10
2022-12-01T01:44:04.089Z,13.10
2022-12-01T01:49:12.163Z,12.45
2022-12-01T01:54:31.582Z,14.13
2022-12-01T01:59:40.711Z,14.68
2022-12-01T02:04:47.157Z,13.38
2022-12-01T02:09:49.598Z,13.60
2022-12-01T02:14:54.766Z,13.70
2022-12-01T02:20:30.437Z,15.50
2022-12-01T02:25:57.676Z,13.57
2022-12-01T02:31:23.136Z,14.23
2022-12-01T02:36:34.774Z,15.40
2022-12-01T02:42:04.054Z,14.63
2022-12-01T02:47:17.137Z,14.73
2022-12-01T02:52:19.933Z,15.80
2022-12-01T02:57:22.413Z,15.13
2022-12-01T03:02:43.701Z,13.90
2022-12-01T03:08:05.689Z,16.00
2022-12-01T03:13:10.183Z,15.65
2022-12-01T03:18:49.620Z,14.50
2022-12-01T03:23:56.451Z,15.10
2022-12-01T03:29:09.825Z,15.50
2022-12-01T03:34:18.126Z,15.43
2022-12-01T03:39:23.771Z,18.67
2022-12-01T03:44:30.882Z,17.10
2022-12-01T03:49:34.096Z,15.80
2022-12-01T03:54:35.765Z,16.10
2022-12-01T03:59:39.300Z,17.65
2022-12-01T04:04:41.440Z,17.05
2022-12-01T04:09:43.542Z,15.95
2022-12-01T04:14:45.630Z,16.77
2022-12-01T04:19:47.780Z,16.10
2022-12-01T04:24:50.171Z,16.45
2022-12-01T04:29:52.545Z,16.83
2022-12-01T04:34:54.410Z,16.00
2022-12-01T04:39:56.506Z,17.00
2022-12-01T04:44:58.619Z,17.85
2022-12-01T04:50:00.795Z,16.13
2022-12-01T04:55:03.594Z,16.38
2022-12-01T05:00:12.989Z,16.45
2022-12-01T05:05:15.168Z,15.88
2022-12-01T05:10:19.114Z,16.13
2022-12-01T05:15:21.735Z,16.35
2022-12-01T05:20:44.022Z,17.70
2022-12-01T05:25:45.912Z,15.43
2022-12-01T05:30:48.870Z,16.15
2022-12-01T05:35:51.414Z,16.38
2022-12-01T05:40:56.346Z,17.17
2022-12-01T05:45:58.428Z,16.05
2022-12-01T05:51:00.304Z,16.67
2022-12-01T05:56:04.355Z,17.20
2022-12-01T06:01:06.906Z,16.40
2022-12-01T06:06:08.718Z,16.23
2022-12-01T06:11:11.081Z,15.75
2022-12-01T06:16:13.368Z,16.02
2022-12-01T06:21:15.087Z,16.15
2022-12-01T06:26:17.218Z,16.77
2022-12-01T06:31:19.390Z,16.63
2022-12-01T06:36:21.695Z,15.55
2022-12-01T06:41:23.397Z,17.85
2022-12-01T06:46:26.090Z,17.55
2022-12-01T06:51:28.556Z,15.73
2022-12-01T06:56:30.318Z,16.85
2022-12-01T07:01:32.842Z,16.73
2022-12-01T07:06:34.749Z,15.18
2022-12-01T07:11:37.075Z,16.65
2022-12-01T07:16:39.309Z,15.77
2022-12-01T07:21:41.521Z,15.98
2022-12-01T07:26:43.777Z,14.68
2022-12-01T07:31:45.776Z,16.65
2022-12-01T07:36:47.549Z,16.80
2022-12-01T07:41:49.269Z,16.25
2022-12-01T07:46:51.357Z,16.52
2022-12-01T07:51:53.591Z,17.08
2022-12-01T07:56:55.871Z,16.23
2022-12-01T08:01:58.078Z,16.95
2022-12-01T08:07:01.846Z,15.90
2022-12-01T08:12:04.295Z,16.17
2022-12-01T08:17:06.464Z,16.35
2022-12-01T08:22:08.636Z,15.18
2022-12-01T08:27:10.380Z,17.38
2022-12-01T08:32:12.083Z,15.85
2022-12-01T08:37:14.695Z,15.93
2022-12-01T08:42:16.467Z,15.93
2022-12-01T08:47:18.994Z,16.60
2022-12-01T08:52:21.334Z,15.15
2022-12-01T08:57:23.121Z,15.02
2022-12-01T09:02:25.630Z,15.38
2022-12-01T09:07:28.005Z,15.45
2022-12-01T09:12:30.194Z,16.08
2022-12-01T09:17:31.878Z,15.02
2022-12-01T09:22:34.692Z,15.15
2022-12-01T09:27:36.464Z,15.32
2022-12-01T09:32:38.609Z,15.23
2022-12-01T09:37:40.760Z,14.85
2022-12-01T09:42:44.215Z,14.68
2022-12-01T09:47:46.777Z,14.98
2022-12-01T09:52:54.328Z,14.25
2022-12-01T09:57:59.205Z,14.75
2022-12-01T10:03:21.379Z,14.60
2022-12-01T10:13:29.527Z,14.35
2022-12-01T10:18:31.640Z,15.32
2022-12-01T10:23:40.440Z,16.02
2022-12-01T10:29:05.244Z,15.38
2022-12-01T10:34:14.571Z,14.88
2022-12-01T10:39:27.608Z,15.38
2022-12-01T10:44:29.781Z,15.40
2022-12-01T10:49:39.033Z,15.10
2022-12-01T10:54:41.620Z,18.35
2022-12-01T11:00:06.157Z,14.27
2022-12-01T11:05:24.875Z,14.77
2022-12-01T11:10:29.960Z,15.40
2022-12-01T11:15:38.448Z,15.73
2022-12-01T11:20:41.090Z,15.63
2022-12-01T11:25:55.236Z,21.73
2022-12-01T11:31:00.511Z,21.15
2022-12-01T11:36:02.377Z,14.52
2022-12-01T11:41:04.260Z,13.85
2022-12-01T11:46:09.089Z,13.57
2022-12-01T11:51:28.846Z,12.73
2022-12-01T11:56:31.804Z,13.35
2022-12-01T12:01:45.985Z,13.32
2022-12-01T12:06:53.883Z,15.57
2022-12-01T12:12:07.641Z,14.05
2022-12-01T12:17:29.142Z,13.30
2022-12-01T12:22:49.656Z,14.43
2022-12-01T12:28:06.807Z,13.85
2022-12-01T12:33:20.446Z,13.15
2022-12-01T12:38:28.050Z,12.73
2022-12-01T12:43:55.751Z,13.18
2022-12-01T12:49:50.235Z,13.70
2022-12-01T13:00:23.783Z,12.98
2022-12-01T13:06:06.813Z,13.90
2022-12-01T13:11:25.258Z,12.73
2022-12-01T13:16:40.469Z,13.02
2022-12-01T13:21:44.727Z,13.70
2022-12-01T13:26:58.249Z,13.55
2022-12-01T13:32:00.273Z,13.05
2022-12-01T13:37:02.358Z,14.32
2022-12-01T13:42:08.184Z,13.85
2022-12-01T13:47:10.733Z,14.07
2022-12-01T13:52:23.891Z,14.85
2022-12-01T13:57:30.669Z,16.38
2022-12-01T14:02:35.572Z,20.52
2022-12-01T14:07:39.195Z,16.48
2022-12-01T14:12:46.147Z,14.88
2022-12-01T14:17:59.010Z,15.05
2022-12-01T14:23:18.938Z,15.60
2022-12-01T14:28:58.498Z,14.38
2022-12-01T14:34:19.122Z,14.88
2022-12-01T14:39:24.253Z,14.27
2022-12-01T14:44:49.169Z,14.05
2022-12-01T14:50:09.929Z,14.38
2022-12-01T14:55:22.042Z,14.23
2022-12-01T15:00:25.163Z,14.35
2022-12-01T15:05:32.627Z,15.70
2022-12-01T15:10:35.630Z,14.98
2022-12-01T15:15:37.771Z,15.63
2022-12-01T15:20:46.337Z,15.63
2022-12-01T15:25:51.114Z,16.73
2022-12-01T15:30:54.827Z,15.02
2022-12-01T15:35:57.625Z,15.68
2022-12-01T15:46:32.451Z,16.63
2022-12-01T15:51:34.945Z,18.02
2022-12-01T15:56:40.770Z,17.52
2022-12-01T16:01:44.253Z,15.88
2022-12-01T16:06:56.378Z,20.10
2022-12-01T16:12:07.766Z,20.92
2022-12-01T16:22:22.574Z,15.73
2022-12-01T16:27:26.895Z,16.27
2022-12-01T16:32:43.852Z,15.07
2022-12-01T16:37:45.611Z,20.60
2022-12-01T16:42:49.862Z,16.55
2022-12-01T16:47:51.600Z,14.07
2022-12-01T16:52:53.336Z,16.13
2022-12-01T16:57:55.484Z,30.80
2022-12-01T17:02:57.634Z,19.17
2022-12-01T17:07:59.870Z,15.18
2022-12-01T17:13:01.716Z,17.60
2022-12-01T17:18:03.507Z,19.88
2022-12-01T17:23:06.542Z,15.77
2022-12-01T17:28:08.425Z,15.38
2022-12-01T17:33:10.182Z,15.32
2022-12-01T17:38:11.921Z,15.82
2022-12-01T17:43:13.895Z,16.10
2022-12-01T17:48:15.639Z,13.38
2022-12-01T17:53:17.566Z,19.25
2022-12-01T17:58:21.539Z,16.33
2022-12-01T18:03:23.699Z,14.55
2022-12-01T18:08:27.310Z,15.43
2022-12-01T18:13:29.290Z,16.15
2022-12-01T18:18:31.041Z,15.13
2022-12-01T18:23:32.879Z,16.25
2022-12-01T18:28:35.543Z,22.05
2022-12-01T18:33:39.051Z,22.33
2022-12-01T18:38:41.344Z,26.25
2022-12-01T18:43:43.689Z,32.67
2022-12-01T18:48:47.791Z,29.30
2022-12-01T18:53:54.795Z,20.38
2022-12-01T18:58:58.602Z,21.63
2022-12-01T19:04:00.671Z,22.02
2022-12-01T19:09:05.037Z,18.58
2022-12-01T19:14:07.818Z,20.88
2022-12-01T19:19:09.999Z,20.67
2022-12-01T19:24:11.968Z,21.63
2022-12-01T19:29:13.822Z,24.70
2022-12-01T19:34:15.534Z,19.65
2022-12-01T19:39:17.279Z,21.83
2022-12-01T19:44:19.133Z,22.25
2022-12-01T19:49:21.042Z,24.50
2022-12-01T19:54:22.864Z,21.33
2022-12-01T19:59:24.679Z,16.88
2022-12-01T20:04:26.457Z,15.30
2022-12-01T20:09:28.263Z,16.15
2022-12-01T20:14:30.461Z,18.02
2022-12-01T20:19:32.291Z,16.25
2022-12-01T20:24:35.898Z,16.75
2022-12-01T20:29:37.747Z,18.83
2022-12-01T20:34:40.078Z,16.90
2022-12-01T20:39:42.204Z,19.02
2022-12-01T20:44:44.626Z,17.73
2022-12-01T20:49:46.486Z,20.17
2022-12-01T20:54:48.606Z,19.75
2022-12-01T20:59:50.744Z,19.00
2022-12-01T21:04:56.328Z,18.48
2022-12-01T21:10:00.791Z,16.10
2022-12-01T21:15:20.551Z,15.80
2022-12-01T21:20:27.109Z,16.77
2022-12-01T21:25:28.907Z,16.35
2022-12-01T21:30:30.712Z,15.35
2022-12-01T21:35:32.484Z,16.92
2022-12-01T21:40:34.167Z,15.90
2022-12-01T21:45:35.921Z,16.48
2022-12-01T21:50:37.664Z,16.10
2022-12-01T21:55:40.281Z,17.70
2022-12-01T22:00:42.559Z,17.92
2022-12-01T22:06:07.089Z,17.52
2022-12-01T22:11:11.456Z,16.50
2022-12-01T22:16:18.833Z,16.50
2022-12-01T22:21:23.608Z,17.58
2022-12-01T22:26:25.978Z,16.30
2022-12-01T22:31:28.799Z,17.00
2022-12-01T22:36:33.314Z,17.83
2022-12-01T22:41:35.526Z,18.20
2022-12-01T22:46:40.279Z,16.75
2022-12-01T22:51:43.471Z,16.83
2022-12-01T22:56:48.167Z,17.25
2022-12-01T23:01:55.699Z,16.50
2022-12-01T23:07:02.800Z,16.75
2022-12-01T23:12:22.905Z,17.05
2022-12-01T23:17:30.861Z,16.27
2022-12-01T23:22:32.703Z,15.85
2022-12-01T23:27:34.887Z,17.73
2022-12-01T23:32:37.037Z,16.77
2022-12-01T23:37:41.518Z,18.17
2022-12-01T23:42:43.333Z,17.55
2022-12-01T23:47:45.107Z,16.25
2022-12-01T23:52:46.883Z,16.45
2022-12-01T23:57:49.903Z,15.73
